Airport View

Enter AWOS ICAO identifier for current METAR.

ex. KFNL

KBUR 251553Z VRB03KT 10SM OVC028 16/11 A2994 RMK AO2 SLP130 T01610106

25 Oct 2020 17:03

Phone: 818-841-1384

Other Area AWOS: KWHP - KVNY - KCQT - KSMO

TAF AMD KBUR 251513Z 2515/2612 VRB03KT P6SM BKN019 BKN024 OVC050 FM251700 VRB03KT P6SM SCT025 OVC045 FM251900 17010KT P6SM BKN050 FM260300 VRB03KT P6SM BKN040 FM260800 35010KT P6SM SCT040